This is the latest recevied weather packets stored in our database for station/object XE3JAR. If no packets are shown the sender has not sent any weather packets the latest 10 day(s).
| Time | Temp. | Humidity | Pressure | Rain* | Wind** | Luminosity | Snow |
|---|---|---|---|---|---|---|---|
| 1778301157 | 28.89° C | 97% | 1013.2 hPa | - | - | - | - |
| 1778300547 | 28.89° C | 97% | 1013.2 hPa | - | - | - | - |
| 1778298722 | 28.89° C | 94% | 1012.9 hPa | - | - | - | - |
| 1778297809 | 30° C | 93% | 1012.5 hPa | - | - | - | - |
| 1778293741 | 31.11° C | 91% | 1011.5 hPa | - | - | - | - |
| 1778292219 | 31.11° C | 88% | 1011.2 hPa | - | - | - | - |
| 1778291914 | 31.11° C | 88% | 1011.2 hPa | - | - | - | - |
| 1778288583 | 32.22° C | 87% | 1011.2 hPa | - | - | - | - |
| 1778287037 | 32.22° C | 85% | 1010.8 hPa | - | - | - | - |
| 1778286730 | 32.22° C | 84% | 1010.8 hPa | - | - | - | - |
| 1778285820 | 32.78° C | 83% | 1010.5 hPa | - | - | - | - |
| 1778281455 | 36.11° C | 77% | 1010.2 hPa | - | - | - | - |
| 1778281149 | 36.11° C | 76% | 1010.2 hPa | - | - | - | - |
| 1778279634 | 37.22° C | 75% | 1010.5 hPa | - | - | - | - |
| 1778275683 | 38.89° C | 62% | 1010.8 hPa | - | - | - | - |
| 1778274903 | 38.89° C | 62% | 1010.8 hPa | - | - | - | - |
| 1778270344 | 42.22° C | 58% | 1011.8 hPa | - | - | - | - |
| 1778270043 | 42.22° C | 57% | 1012.2 hPa | - | - | - | - |
| 1778269732 | 42.22° C | 56% | 1012.2 hPa | - | - | - | - |
| 1778269125 | 42.22° C | 58% | 1012.5 hPa | - | - | - | - |
| 1778267910 | 40° C | 62% | 1012.5 hPa | - | - | - | - |
| 1778267633 | 40° C | 63% | 1012.5 hPa | - | - | - | - |
| 1778266702 | 38.89° C | 62% | 1013.2 hPa | - | - | - | - |
| 1778265795 | 38.89° C | 63% | 1013.2 hPa | - | - | - | - |
| 1778265483 | 40° C | 63% | 1013.2 hPa | - | - | - | - |
* Rain since midnight (hover to see other rain measurements)
** Current wind speed in m/s (hover to see current wind gust speed)